Time,TemperatureF,DewpointF,PressureIn,WindDirection,WindDirectionDegrees,WindSpeedMPH,WindSpeedGustMPH,Humidity,HourlyPrecipIn,Conditions,Clouds,dailyrainin,SoftwareType,DateUTC
2013-06-24 00:00:00,59.0,-99.9,-100.00,North,-999,-999.0,-999.0,-999,0.01,,,0.06,,2013-06-24 07:00:00,
2013-06-24 00:39:00,59.0,-99.9,-100.00,North,-999,-999.0,-999.0,-999,0.01,,,0.06,,2013-06-24 07:39:00,
2013-06-24 00:50:00,59.0,-99.9,-100.00,North,-999,-999.0,-999.0,-999,0.01,,,0.06,,2013-06-24 07:50:00,
2013-06-24 00:58:00,59.0,-99.9,-100.00,North,-999,-999.0,-999.0,-999,0.01,,,0.06,,2013-06-24 07:58:00,
2013-06-24 01:00:00,58.0,-99.9,-100.00,North,-999,-999.0,-999.0,-999,0.09,,,0.15,,2013-06-24 08:00:00,
2013-06-24 01:39:00,58.0,-99.9,-100.00,North,-999,-999.0,-999.0,-999,0.09,,,0.15,,2013-06-24 08:39:00,
2013-06-24 02:00:00,58.0,-99.9,-100.00,North,-999,-999.0,-999.0,-999,0.04,,,0.19,,2013-06-24 09:00:00,
2013-06-24 02:29:00,58.0,-99.9,-100.00,North,-999,-999.0,-999.0,-999,0.04,,,0.19,,2013-06-24 09:29:00,
2013-06-24 02:39:00,58.0,-99.9,-100.00,North,-999,-999.0,-999.0,-999,0.04,,,0.19,,2013-06-24 09:39:00,
2013-06-24 02:49:00,58.0,-99.9,-100.00,North,-999,-999.0,-999.0,-999,0.04,,,0.19,,2013-06-24 09:49:00,
2013-06-24 03:00:00,57.0,-99.9,-100.00,North,-999,-999.0,-999.0,-999,0.01,,,0.20,,2013-06-24 10:00:00,
2013-06-24 03:38:00,57.0,-99.9,-100.00,North,-999,-999.0,-999.0,-999,0.01,,,0.20,,2013-06-24 10:38:00,
2013-06-24 03:53:00,57.0,-99.9,-100.00,North,-999,-999.0,-999.0,-999,0.01,,,0.20,,2013-06-24 10:53:00,
2013-06-24 05:00:00,56.0,-99.9,-100.00,North,-999,-999.0,-999.0,-999,-99.99,,,0.20,,2013-06-24 12:00:00,
2013-06-24 05:37:00,56.0,-99.9,-100.00,North,-999,-999.0,-999.0,-999,-99.99,,,0.20,,2013-06-24 12:37:00,
2013-06-24 05:50:00,56.0,-99.9,-100.00,North,-999,-999.0,-999.0,-999,-99.99,,,0.20,,2013-06-24 12:50:00,
2013-06-24 05:56:00,56.0,-99.9,-100.00,North,-999,-999.0,-999.0,-999,-99.99,,,0.20,,2013-06-24 12:56:00,
2013-06-24 06:00:00,56.0,-99.9,-100.00,North,-999,-999.0,-999.0,-999,0.04,,,0.24,,2013-06-24 13:00:00,
2013-06-24 06:38:00,56.0,-99.9,-100.00,North,-999,-999.0,-999.0,-999,0.04,,,0.24,,2013-06-24 13:38:00,
2013-06-24 06:46:00,56.0,-99.9,-100.00,North,-999,-999.0,-999.0,-999,0.04,,,0.24,,2013-06-24 13:46:00,
2013-06-24 06:58:00,56.0,-99.9,-100.00,North,-999,-999.0,-999.0,-999,0.04,,,0.24,,2013-06-24 13:58:00,
2013-06-24 07:00:00,55.0,-99.9,-100.00,North,-999,-999.0,-999.0,-999,0.09,,,0.32,,2013-06-24 14:00:00,
2013-06-24 07:39:00,55.0,-99.9,-100.00,North,-999,-999.0,-999.0,-999,0.09,,,0.32,,2013-06-24 14:39:00,
2013-06-24 08:00:00,54.0,-99.9,-100.00,North,-999,-999.0,-999.0,-999,0.06,,,0.37,,2013-06-24 15:00:00,
2013-06-24 08:37:00,54.0,-99.9,-100.00,North,-999,-999.0,-999.0,-999,0.06,,,0.37,,2013-06-24 15:37:00,
2013-06-24 08:58:00,54.0,-99.9,-100.00,North,-999,-999.0,-999.0,-999,0.06,,,0.37,,2013-06-24 15:58:00,
2013-06-24 09:00:00,55.0,-99.9,-100.00,North,-999,-999.0,-999.0,-999,0.07,,,0.44,,2013-06-24 16:00:00,
2013-06-24 09:25:00,55.0,-99.9,-100.00,North,-999,-999.0,-999.0,-999,0.07,,,0.44,,2013-06-24 16:25:00,
2013-06-24 09:37:00,55.0,-99.9,-100.00,North,-999,-999.0,-999.0,-999,0.07,,,0.44,,2013-06-24 16:37:00,
2013-06-24 09:46:00,55.0,-99.9,-100.00,North,-999,-999.0,-999.0,-999,0.07,,,0.44,,2013-06-24 16:46:00,
2013-06-24 09:57:00,55.0,-99.9,-100.00,North,-999,-999.0,-999.0,-999,0.07,,,0.44,,2013-06-24 16:57:00,
2013-06-24 10:00:00,55.0,-99.9,-100.00,North,-999,-999.0,-999.0,-999,0.00,,,0.44,,2013-06-24 17:00:00,
2013-06-24 10:26:00,55.0,-99.9,-100.00,North,-999,-999.0,-999.0,-999,0.00,,,0.44,,2013-06-24 17:26:00,
2013-06-24 10:36:00,55.0,-99.9,-100.00,North,-999,-999.0,-999.0,-999,0.00,,,0.44,,2013-06-24 17:36:00,
2013-06-24 10:48:00,55.0,-99.9,-100.00,North,-999,-999.0,-999.0,-999,0.00,,,0.44,,2013-06-24 17:48:00,
2013-06-24 10:58:00,55.0,-99.9,-100.00,North,-999,-999.0,-999.0,-999,0.00,,,0.44,,2013-06-24 17:58:00,
2013-06-24 11:00:00,56.0,-99.9,-100.00,North,-999,-999.0,-999.0,-999,0.00,,,0.44,,2013-06-24 18:00:00,
2013-06-24 11:27:00,56.0,-99.9,-100.00,North,-999,-999.0,-999.0,-999,0.00,,,0.44,,2013-06-24 18:27:00,
2013-06-24 11:39:00,56.0,-99.9,-100.00,North,-999,-999.0,-999.0,-999,0.00,,,0.44,,2013-06-24 18:39:00,
2013-06-24 11:50:00,56.0,-99.9,-100.00,North,-999,-999.0,-999.0,-999,0.00,,,0.44,,2013-06-24 18:50:00,
2013-06-24 11:57:00,56.0,-99.9,-100.00,North,-999,-999.0,-999.0,-999,0.00,,,0.44,,2013-06-24 18:57:00,
2013-06-24 12:38:00,57.0,-99.9,-100.00,North,-999,-999.0,-999.0,-999,0.00,,,0.44,,2013-06-24 19:38:00,
2013-06-24 12:47:00,57.0,-99.9,-100.00,North,-999,-999.0,-999.0,-999,0.00,,,0.44,,2013-06-24 19:47:00,
2013-06-24 12:57:00,57.0,-99.9,-100.00,North,-999,-999.0,-999.0,-999,0.00,,,0.44,,2013-06-24 19:57:00,
2013-06-24 13:00:00,59.0,-99.9,-100.00,North,-999,-999.0,-999.0,-999,0.00,,,0.43,,2013-06-24 20:00:00,
2013-06-24 13:35:00,59.0,-99.9,-100.00,North,-999,-999.0,-999.0,-999,0.00,,,0.43,,2013-06-24 20:35:00,
2013-06-24 13:48:00,59.0,-99.9,-100.00,North,-999,-999.0,-999.0,-999,0.00,,,0.43,,2013-06-24 20:48:00,
2013-06-24 13:57:00,59.0,-99.9,-100.00,North,-999,-999.0,-999.0,-999,0.00,,,0.43,,2013-06-24 20:57:00,
2013-06-24 14:00:00,60.0,-99.9,-100.00,North,-999,-999.0,-999.0,-999,0.00,,,0.43,,2013-06-24 21:00:00,
2013-06-24 14:39:00,60.0,-99.9,-100.00,North,-999,-999.0,-999.0,-999,0.00,,,0.43,,2013-06-24 21:39:00,
2013-06-24 14:49:00,60.0,-99.9,-100.00,North,-999,-999.0,-999.0,-999,0.00,,,0.43,,2013-06-24 21:49:00,
2013-06-24 14:56:00,60.0,-99.9,-100.00,North,-999,-999.0,-999.0,-999,0.00,,,0.43,,2013-06-24 21:56:00,
2013-06-24 15:00:00,62.0,-99.9,-100.00,North,-999,-999.0,-999.0,-999,0.00,,,0.43,,2013-06-24 22:00:00,
2013-06-24 15:38:00,62.0,-99.9,-100.00,North,-999,-999.0,-999.0,-999,0.00,,,0.43,,2013-06-24 22:38:00,
2013-06-24 16:00:00,66.0,-99.9,-100.00,North,-999,-999.0,-999.0,-999,0.00,,,0.43,,2013-06-24 23:00:00,
2013-06-24 16:47:00,66.0,-99.9,-100.00,North,-999,-999.0,-999.0,-999,0.00,,,0.43,,2013-06-24 23:47:00,
2013-06-24 16:56:00,66.0,-99.9,-100.00,North,-999,-999.0,-999.0,-999,0.00,,,0.43,,2013-06-24 23:56:00,
2013-06-24 17:00:00,62.0,-99.9,-100.00,North,-999,-999.0,-999.0,-999,0.00,,,0.43,,2013-06-25 00:00:00,
2013-06-24 17:36:00,62.0,-99.9,-100.00,North,-999,-999.0,-999.0,-999,0.00,,,0.43,,2013-06-25 00:36:00,
2013-06-24 17:49:00,62.0,-99.9,-100.00,North,-999,-999.0,-999.0,-999,0.00,,,0.43,,2013-06-25 00:49:00,
2013-06-24 17:57:00,62.0,-99.9,-100.00,North,-999,-999.0,-999.0,-999,0.00,,,0.43,,2013-06-25 00:57:00,
2013-06-24 18:00:00,60.0,-99.9,-100.00,North,-999,-999.0,-999.0,-999,0.00,,,0.43,,2013-06-25 01:00:00,
2013-06-24 18:46:00,60.0,-99.9,-100.00,North,-999,-999.0,-999.0,-999,0.00,,,0.43,,2013-06-25 01:46:00,
2013-06-24 18:59:00,60.0,-99.9,-100.00,North,-999,-999.0,-999.0,-999,0.00,,,0.43,,2013-06-25 01:59:00,
2013-06-24 19:00:00,56.0,-99.9,-100.00,North,-999,-999.0,-999.0,-999,0.57,,,0.98,,2013-06-25 02:00:00,
2013-06-24 19:39:00,56.0,-99.9,-100.00,North,-999,-999.0,-999.0,-999,0.57,,,0.98,,2013-06-25 02:39:00,
2013-06-24 19:58:00,56.0,-99.9,-100.00,North,-999,-999.0,-999.0,-999,0.57,,,0.98,,2013-06-25 02:58:00,
2013-06-24 20:00:00,55.0,-99.9,-100.00,North,-999,-999.0,-999.0,-999,0.15,,,1.13,,2013-06-25 03:00:00,
2013-06-24 20:50:00,55.0,-99.9,-100.00,North,-999,-999.0,-999.0,-999,0.15,,,1.13,,2013-06-25 03:50:00,
2013-06-24 21:00:00,55.0,-99.9,-100.00,North,-999,-999.0,-999.0,-999,0.00,,,1.13,,2013-06-25 04:00:00,
2013-06-24 21:34:00,55.0,-99.9,-100.00,North,-999,-999.0,-999.0,-999,0.00,,,1.13,,2013-06-25 04:34:00,
2013-06-24 21:43:00,55.0,-99.9,-100.00,North,-999,-999.0,-999.0,-999,0.00,,,1.13,,2013-06-25 04:43:00,
2013-06-24 21:52:00,55.0,-99.9,-100.00,North,-999,-999.0,-999.0,-999,0.00,,,1.13,,2013-06-25 04:52:00,
2013-06-24 22:00:00,54.0,-99.9,-100.00,North,-999,-999.0,-999.0,-999,0.01,,,1.14,,2013-06-25 05:00:00,
2013-06-24 22:33:00,54.0,-99.9,-100.00,North,-999,-999.0,-999.0,-999,0.01,,,1.14,,2013-06-25 05:33:00,
2013-06-24 22:45:00,54.0,-99.9,-100.00,North,-999,-999.0,-999.0,-999,0.01,,,1.14,,2013-06-25 05:45:00,
2013-06-24 22:52:00,54.0,-99.9,-100.00,North,-999,-999.0,-999.0,-999,0.01,,,1.14,,2013-06-25 05:52:00,